Time;durP1;ratioP1;P1;durP2;ratioP2;P2;SDS_P1;SDS_P2;PMS_P1;PMS_P2;Temp;Humidity;BMP_temperature;BMP_pressure;BME280_temperature;BME280_humidity;BME280_pressure;Samples;Min_cycle;Max_cycle;Signal;HPM_P1;HPM_P2
2023/12/29 00:02:17;;;;;;;5.13;1.90;;;;;;;;;;4949007;28;20218;-87
2023/12/29 00:04:42;;;;;;;3.97;1.87;;;;;;;;;;4945969;28;20285;-85
2023/12/29 00:07:10;;;;;;;7.20;1.90;;;;;;;;;;4961905;28;20809;-83
2023/12/29 00:09:40;;;;;;;5.93;1.90;;;;;;;;;;4922944;29;20230;-84
2023/12/29 00:12:08;;;;;;;3.43;1.90;;;;;;;;;;4940706;28;20321;-84
2023/12/29 00:14:39;;;;;;;4.60;1.70;;;;;;;;;;4945941;28;20227;-83
2023/12/29 00:17:05;;;;;;;3.43;1.40;;;;;;;;;;4930476;28;20234;-85
2023/12/29 00:19:32;;;;;;;5.17;1.87;;;;;;;;;;4928948;29;20635;-84
2023/12/29 00:22:02;;;;;;;3.17;1.60;;;;;;;;;;4934215;28;20231;-85
2023/12/29 00:24:31;;;;;;;5.33;1.60;;;;;;;;;;4949307;28;20245;-84
2023/12/29 00:26:59;;;;;;;4.27;1.60;;;;;;;;;;4944563;28;20225;-87
2023/12/29 00:29:32;;;;;;;3.53;1.97;;;;;;;;;;4934686;28;20260;-86
2023/12/29 00:32:00;;;;;;;3.90;1.57;;;;;;;;;;4940454;28;20253;-85
2023/12/29 00:34:28;;;;;;;6.40;1.70;;;;;;;;;;4920781;28;20245;-85
2023/12/29 00:36:54;;;;;;;2.83;1.63;;;;;;;;;;4922019;29;20627;-84
2023/12/29 00:39:28;;;;;;;6.73;1.80;;;;;;;;;;4948554;28;20222;-85
2023/12/29 00:41:56;;;;;;;9.87;2.00;;;;;;;;;;4943859;28;20714;-86
2023/12/29 00:44:23;;;;;;;3.83;1.80;;;;;;;;;;4919945;28;20224;-80
2023/12/29 00:46:49;;;;;;;4.03;1.60;;;;;;;;;;4915259;29;20222;-82
2023/12/29 00:49:19;;;;;;;5.03;1.60;;;;;;;;;;4931576;28;20709;-84
2023/12/29 00:51:48;;;;;;;4.03;1.60;;;;;;;;;;4967370;28;20245;-86
2023/12/29 00:54:13;;;;;;;5.97;1.60;;;;;;;;;;4937066;28;20233;-88
2023/12/29 00:56:41;;;;;;;6.23;1.90;;;;;;;;;;4947568;28;20234;-85
2023/12/29 00:59:09;;;;;;;6.00;1.60;;;;;;;;;;4940832;28;20233;-85
2023/12/29 01:01:35;;;;;;;2.60;1.60;;;;;;;;;;4923843;29;20223;-84
2023/12/29 01:04:01;;;;;;;3.47;1.63;;;;;;;;;;4932043;28;20231;-86
2023/12/29 01:06:31;;;;;;;7.20;1.90;;;;;;;;;;4935256;28;20596;-83
2023/12/29 01:08:57;;;;;;;3.60;1.90;;;;;;;;;;4917625;28;20679;-84
2023/12/29 01:11:23;;;;;;;4.60;1.97;;;;;;;;;;4916616;28;20232;-84
2023/12/29 01:13:53;;;;;;;3.50;1.67;;;;;;;;;;4939586;28;20295;-83
2023/12/29 01:16:19;;;;;;;5.87;2.00;;;;;;;;;;4943860;28;20225;-80
2023/12/29 01:18:51;;;;;;;2.40;1.37;;;;;;;;;;4929207;28;20227;-83
2023/12/29 01:21:20;;;;;;;8.37;1.60;;;;;;;;;;4927535;28;20244;-83
2023/12/29 01:23:49;;;;;;;3.60;1.70;;;;;;;;;;4944414;28;20227;-84
2023/12/29 01:26:16;;;;;;;5.83;2.07;;;;;;;;;;4938805;28;20281;-83
2023/12/29 01:28:44;;;;;;;3.50;1.43;;;;;;;;;;4929997;28;20325;-84
2023/12/29 01:31:13;;;;;;;2.93;1.50;;;;;;;;;;4922292;28;20222;-83
2023/12/29 01:33:38;;;;;;;3.07;1.80;;;;;;;;;;4936189;28;20723;-85
2023/12/29 01:36:09;;;;;;;5.30;1.80;;;;;;;;;;4941805;28;20255;-82
2023/12/29 01:38:35;;;;;;;3.77;1.57;;;;;;;;;;4949866;28;20290;-84
2023/12/29 01:41:01;;;;;;;3.73;1.70;;;;;;;;;;4938447;28;20223;-84
2023/12/29 01:43:27;;;;;;;2.00;1.20;;;;;;;;;;4958202;28;20238;-88
2023/12/29 01:45:53;;;;;;;4.83;1.80;;;;;;;;;;4940060;28;20230;-85
2023/12/29 01:48:22;;;;;;;3.57;1.40;;;;;;;;;;4935469;28;20216;-85
2023/12/29 01:50:50;;;;;;;2.50;1.50;;;;;;;;;;4941577;28;20337;-84
2023/12/29 01:53:15;;;;;;;4.27;1.70;;;;;;;;;;4919086;28;20250;-84
2023/12/29 01:55:43;;;;;;;3.80;1.43;;;;;;;;;;4913719;28;20241;-83
2023/12/29 01:58:09;;;;;;;2.63;1.40;;;;;;;;;;4965602;28;20230;-84
2023/12/29 02:00:37;;;;;;;3.97;1.67;;;;;;;;;;4914892;28;20230;-85
2023/12/29 02:03:05;;;;;;;6.87;1.60;;;;;;;;;;4917183;28;20287;-87
2023/12/29 02:05:35;;;;;;;3.90;1.90;;;;;;;;;;4951451;28;20230;-84
2023/12/29 02:08:01;;;;;;;4.97;1.33;;;;;;;;;;4935256;28;20266;-81
2023/12/29 02:10:27;;;;;;;3.23;1.60;;;;;;;;;;4947667;28;20218;-84
2023/12/29 02:12:57;;;;;;;4.73;1.90;;;;;;;;;;4938043;28;20256;-85
2023/12/29 02:15:23;;;;;;;3.50;1.40;;;;;;;;;;4921977;28;20669;-84
2023/12/29 02:18:01;;;;;;;7.30;1.87;;;;;;;;;;4952567;28;20306;-83
2023/12/29 02:20:27;;;;;;;5.17;1.70;;;;;;;;;;4929179;28;20238;-83
2023/12/29 02:22:57;;;;;;;4.73;1.47;;;;;;;;;;4949253;28;20313;-84
2023/12/29 02:25:23;;;;;;;4.43;1.50;;;;;;;;;;4936791;28;20229;-84
2023/12/29 02:28:33;;;;;;;4.37;1.57;;;;;;;;;;4936495;28;20222;-84
2023/12/29 02:31:01;;;;;;;4.93;1.80;;;;;;;;;;4958695;28;20250;-85
2023/12/29 02:33:27;;;;;;;3.60;1.80;;;;;;;;;;4916090;28;20286;-83
2023/12/29 02:35:55;;;;;;;3.63;1.60;;;;;;;;;;4930204;28;20235;-85
2023/12/29 02:38:21;;;;;;;3.83;2.00;;;;;;;;;;4929546;28;20219;-84
2023/12/29 02:40:47;;;;;;;3.23;1.33;;;;;;;;;;4965963;28;20637;-85
2023/12/29 02:43:18;;;;;;;4.93;1.80;;;;;;;;;;4917647;28;20838;-84
2023/12/29 02:45:43;;;;;;;3.90;1.93;;;;;;;;;;4949318;28;20229;-84
2023/12/29 02:48:15;;;;;;;4.40;2.00;;;;;;;;;;4924075;28;20277;-85
2023/12/29 02:50:40;;;;;;;7.63;2.00;;;;;;;;;;4938802;28;20277;-85
2023/12/29 02:53:06;;;;;;;5.43;2.10;;;;;;;;;;4932285;28;20230;-86
2023/12/29 02:55:31;;;;;;;6.40;2.00;;;;;;;;;;4932247;28;20223;-84
2023/12/29 02:58:02;;;;;;;1.70;1.23;;;;;;;;;;4915936;29;20229;-86
2023/12/29 03:00:30;;;;;;;4.43;1.60;;;;;;;;;;4946427;28;20222;-82
2023/12/29 03:02:55;;;;;;;4.97;1.57;;;;;;;;;;4939934;28;20302;-85
2023/12/29 03:05:21;;;;;;;4.83;1.70;;;;;;;;;;4913764;28;20253;-85
2023/12/29 03:07:48;;;;;;;4.67;1.83;;;;;;;;;;4967314;28;20628;-86
2023/12/29 03:10:14;;;;;;;5.70;2.33;;;;;;;;;;4937681;28;20241;-84
2023/12/29 03:12:40;;;;;;;6.43;2.07;;;;;;;;;;4936564;28;20238;-83
2023/12/29 03:15:05;;;;;;;4.27;2.13;;;;;;;;;;4951568;28;20226;-86
2023/12/29 03:17:31;;;;;;;6.37;2.00;;;;;;;;;;4910064;28;20302;-85
2023/12/29 03:19:56;;;;;;;5.83;1.80;;;;;;;;;;4943494;28;20230;-86
2023/12/29 03:22:27;;;;;;;5.37;1.90;;;;;;;;;;4945951;28;20226;-87
2023/12/29 03:24:53;;;;;;;6.60;1.83;;;;;;;;;;4923121;28;20219;-87
2023/12/29 03:27:21;;;;;;;5.90;1.77;;;;;;;;;;4928950;28;20647;-87
2023/12/29 03:29:47;;;;;;;3.70;1.80;;;;;;;;;;4961816;28;20733;-84
2023/12/29 03:32:12;;;;;;;4.80;1.80;;;;;;;;;;4929631;28;20218;-84
2023/12/29 03:34:40;;;;;;;3.33;1.50;;;;;;;;;;4925833;29;20237;-84
2023/12/29 03:37:09;;;;;;;4.00;1.73;;;;;;;;;;4901530;28;20234;-83
2023/12/29 03:39:35;;;;;;;5.37;2.00;;;;;;;;;;4911781;28;20227;-82
2023/12/29 03:42:01;;;;;;;10.43;2.27;;;;;;;;;;4928274;28;20218;-86
2023/12/29 03:44:29;;;;;;;3.50;1.73;;;;;;;;;;4962279;28;20235;-84
2023/12/29 03:46:57;;;;;;;4.43;1.90;;;;;;;;;;4930965;28;20298;-84
2023/12/29 03:49:25;;;;;;;3.53;1.73;;;;;;;;;;4925362;28;20233;-84
2023/12/29 03:51:53;;;;;;;7.90;2.20;;;;;;;;;;4925685;28;20218;-87
2023/12/29 03:54:19;;;;;;;9.80;1.80;;;;;;;;;;4912735;28;20288;-85
2023/12/29 03:56:47;;;;;;;6.63;2.10;;;;;;;;;;4943787;28;20218;-84
2023/12/29 04:02:59;;;;;;;2.93;1.87;;;;;;;;;;4956045;28;20230;-84
2023/12/29 04:05:25;;;;;;;4.90;2.33;;;;;;;;;;4909250;28;20227;-86
2023/12/29 04:07:53;;;;;;;4.50;1.90;;;;;;;;;;4923134;28;20644;-87
2023/12/29 04:10:19;;;;;;;5.07;2.20;;;;;;;;;;4911190;28;20234;-86
2023/12/29 04:12:48;;;;;;;5.87;2.27;;;;;;;;;;4911487;28;20727;-84
2023/12/29 04:15:16;;;;;;;4.33;2.07;;;;;;;;;;4978904;28;20226;-85
2023/12/29 04:17:41;;;;;;;4.97;1.77;;;;;;;;;;4962974;28;20217;-87
2023/12/29 04:20:11;;;;;;;2.80;1.80;;;;;;;;;;4932303;28;20214;-85
2023/12/29 04:22:37;;;;;;;4.17;1.60;;;;;;;;;;4919504;28;20218;-86
2023/12/29 04:25:03;;;;;;;3.17;1.60;;;;;;;;;;4932505;29;20747;-86
2023/12/29 04:27:31;;;;;;;5.00;1.87;;;;;;;;;;4933123;28;20236;-81
2023/12/29 04:29:58;;;;;;;5.23;2.20;;;;;;;;;;4942846;28;20238;-84
2023/12/29 04:32:27;;;;;;;8.60;1.77;;;;;;;;;;4944281;28;20226;-85
2023/12/29 04:34:55;;;;;;;4.47;1.20;;;;;;;;;;4939524;28;20299;-85
2023/12/29 04:37:21;;;;;;;1.90;1.20;;;;;;;;;;4926886;28;20214;-86
2023/12/29 04:39:47;;;;;;;1.70;1.30;;;;;;;;;;4938357;28;20640;-86
2023/12/29 04:42:14;;;;;;;3.30;1.50;;;;;;;;;;4945394;28;20225;-84
2023/12/29 04:44:40;;;;;;;1.83;1.10;;;;;;;;;;4934741;28;20222;-86
2023/12/29 04:47:06;;;;;;;2.50;1.40;;;;;;;;;;4932054;28;20897;-85
2023/12/29 04:49:33;;;;;;;2.30;1.10;;;;;;;;;;4927714;28;20253;-88
2023/12/29 04:51:59;;;;;;;2.13;1.10;;;;;;;;;;4948890;28;20299;-87
2023/12/29 04:54:25;;;;;;;2.03;1.07;;;;;;;;;;4926486;28;20226;-87
2023/12/29 04:56:50;;;;;;;1.70;1.10;;;;;;;;;;4943529;28;20215;-86
2023/12/29 04:59:16;;;;;;;2.73;1.20;;;;;;;;;;4926901;28;20277;-85
2023/12/29 05:01:46;;;;;;;4.50;1.33;;;;;;;;;;4937357;28;20769;-84
2023/12/29 05:04:11;;;;;;;2.70;1.10;;;;;;;;;;4927590;28;20226;-83
2023/12/29 05:06:39;;;;;;;3.03;1.37;;;;;;;;;;4965381;28;20222;-87
2023/12/29 05:09:08;;;;;;;2.70;1.23;;;;;;;;;;4931720;28;20242;-85
2023/12/29 05:11:36;;;;;;;2.00;1.30;;;;;;;;;;4922736;28;20222;-84
2023/12/29 05:14:01;;;;;;;3.43;1.20;;;;;;;;;;4909016;28;20246;-86
2023/12/29 05:16:29;;;;;;;2.53;1.37;;;;;;;;;;4954552;28;20870;-86
2023/12/29 05:18:55;;;;;;;2.20;1.23;;;;;;;;;;4934315;28;20226;-85
2023/12/29 05:21:24;;;;;;;4.03;1.30;;;;;;;;;;4939518;28;20707;-84
2023/12/29 05:23:50;;;;;;;3.33;1.10;;;;;;;;;;4941728;28;20247;-85
2023/12/29 05:26:15;;;;;;;4.03;1.20;;;;;;;;;;4965172;28;20221;-85
2023/12/29 05:28:41;;;;;;;2.83;1.50;;;;;;;;;;4919898;28;20234;-86
2023/12/29 05:31:09;;;;;;;3.47;1.23;;;;;;;;;;4931036;28;20223;-86
2023/12/29 05:33:37;;;;;;;2.77;1.60;;;;;;;;;;4938583;28;20327;-85
2023/12/29 05:36:07;;;;;;;3.67;1.10;;;;;;;;;;4933621;28;20222;-82
2023/12/29 05:38:33;;;;;;;1.67;1.20;;;;;;;;;;4931493;28;20230;-86
2023/12/29 05:41:01;;;;;;;4.23;1.30;;;;;;;;;;4936573;28;20215;-86
2023/12/29 05:43:26;;;;;;;3.60;1.20;;;;;;;;;;4931615;28;20223;-86
2023/12/29 05:45:54;;;;;;;3.63;1.50;;;;;;;;;;4929966;28;20223;-84
2023/12/29 05:48:20;;;;;;;2.63;1.30;;;;;;;;;;4965596;28;20611;-84
2023/12/29 05:50:45;;;;;;;2.50;1.47;;;;;;;;;;4964102;28;20587;-85
2023/12/29 05:53:11;;;;;;;4.47;1.43;;;;;;;;;;4934776;28;20226;-85
2023/12/29 05:55:39;;;;;;;3.83;1.40;;;;;;;;;;4951322;28;20676;-86
2023/12/29 05:58:04;;;;;;;1.67;1.20;;;;;;;;;;4930514;28;20225;-84
2023/12/29 06:00:32;;;;;;;2.60;1.13;;;;;;;;;;4947082;28;20602;-84
2023/12/29 06:03:04;;;;;;;2.10;1.30;;;;;;;;;;4960155;28;20219;-84
2023/12/29 06:05:32;;;;;;;2.60;1.17;;;;;;;;;;4940439;28;20419;-86
2023/12/29 06:07:57;;;;;;;1.77;1.20;;;;;;;;;;4941195;28;20338;-86
2023/12/29 06:10:23;;;;;;;3.17;1.40;;;;;;;;;;4926374;28;20229;-87
2023/12/29 06:12:51;;;;;;;1.93;1.10;;;;;;;;;;4973470;28;20225;-84
2023/12/29 06:15:20;;;;;;;2.83;1.33;;;;;;;;;;4954279;28;20758;-86
2023/12/29 06:17:45;;;;;;;2.97;1.37;;;;;;;;;;4954505;28;20210;-83
2023/12/29 06:20:16;;;;;;;2.50;1.33;;;;;;;;;;4952898;28;20295;-86
2023/12/29 06:22:46;;;;;;;2.37;1.50;;;;;;;;;;4985143;28;20218;-84
2023/12/29 06:25:15;;;;;;;3.13;1.13;;;;;;;;;;4932859;28;20227;-88
2023/12/29 06:27:40;;;;;;;4.13;1.50;;;;;;;;;;4946417;28;20289;-86
2023/12/29 06:30:07;;;;;;;5.03;1.40;;;;;;;;;;4917001;28;20634;-86
2023/12/29 06:32:35;;;;;;;3.30;1.37;;;;;;;;;;4968614;28;20230;-84
2023/12/29 06:35:02;;;;;;;3.43;1.20;;;;;;;;;;4932980;28;20210;-83
2023/12/29 06:37:33;;;;;;;2.17;1.30;;;;;;;;;;4936646;28;20226;-85
2023/12/29 06:39:59;;;;;;;2.47;1.10;;;;;;;;;;4929075;28;20234;-86
2023/12/29 06:42:27;;;;;;;3.03;1.63;;;;;;;;;;4942766;28;20299;-86
2023/12/29 06:44:52;;;;;;;3.10;1.53;;;;;;;;;;4948122;28;20206;-86
2023/12/29 06:47:20;;;;;;;1.80;1.20;;;;;;;;;;4913995;28;20352;-88
2023/12/29 06:49:46;;;;;;;6.70;1.77;;;;;;;;;;4963666;28;20227;-87
2023/12/29 06:52:16;;;;;;;3.17;1.33;;;;;;;;;;4932233;28;20273;-87
2023/12/29 06:54:41;;;;;;;4.30;1.90;;;;;;;;;;4929619;28;20895;-83
2023/12/29 06:57:09;;;;;;;3.37;1.50;;;;;;;;;;4929165;28;20215;-86
2023/12/29 06:59:35;;;;;;;3.60;1.47;;;;;;;;;;4945497;28;20232;-84
2023/12/29 07:02:03;;;;;;;3.23;1.53;;;;;;;;;;4932971;28;20247;-84
2023/12/29 07:04:28;;;;;;;3.33;1.53;;;;;;;;;;4931054;28;20223;-82
2023/12/29 07:06:56;;;;;;;7.17;2.30;;;;;;;;;;4943333;28;20648;-86
2023/12/29 07:09:22;;;;;;;3.87;1.50;;;;;;;;;;4947625;28;20227;-82
2023/12/29 07:11:50;;;;;;;5.43;1.97;;;;;;;;;;4963110;28;20238;-84
2023/12/29 07:14:18;;;;;;;4.50;1.73;;;;;;;;;;4933873;28;20218;-84
2023/12/29 07:16:43;;;;;;;4.70;2.00;;;;;;;;;;4922684;28;20218;-85
2023/12/29 07:19:12;;;;;;;3.77;1.53;;;;;;;;;;4931973;28;20222;-84
2023/12/29 07:21:39;;;;;;;10.30;1.80;;;;;;;;;;4944348;28;20285;-84
2023/12/29 07:24:07;;;;;;;4.63;1.77;;;;;;;;;;4943452;28;20256;-85
2023/12/29 07:26:35;;;;;;;4.23;1.77;;;;;;;;;;4933480;28;20264;-86
2023/12/29 07:29:01;;;;;;;5.10;1.90;;;;;;;;;;4920450;28;20594;-84
2023/12/29 07:31:29;;;;;;;3.53;1.50;;;;;;;;;;4934198;28;20234;-84
2023/12/29 07:33:55;;;;;;;8.50;2.30;;;;;;;;;;4942001;29;20237;-86
2023/12/29 07:36:22;;;;;;;3.50;1.73;;;;;;;;;;4912810;28;20224;-84
2023/12/29 07:38:50;;;;;;;4.90;1.90;;;;;;;;;;4960519;28;20590;-85
2023/12/29 07:41:18;;;;;;;9.43;2.80;;;;;;;;;;4933285;28;20241;-84
2023/12/29 07:43:49;;;;;;;5.90;2.17;;;;;;;;;;4954324;28;20225;-82
2023/12/29 07:46:23;;;;;;;7.17;2.00;;;;;;;;;;4930106;28;20759;-82
2023/12/29 07:48:52;;;;;;;6.07;2.37;;;;;;;;;;4920113;28;20231;-84
2023/12/29 07:51:22;;;;;;;4.23;1.93;;;;;;;;;;4903453;28;20223;-83
2023/12/29 07:53:48;;;;;;;5.20;2.30;;;;;;;;;;4926390;29;20667;-84
2023/12/29 07:56:16;;;;;;;7.83;2.27;;;;;;;;;;4921504;28;20219;-84
2023/12/29 07:58:46;;;;;;;7.73;2.87;;;;;;;;;;4924222;28;20222;-83
2023/12/29 08:01:17;;;;;;;5.60;3.00;;;;;;;;;;4921890;28;20222;-84
2023/12/29 08:03:42;;;;;;;5.67;2.83;;;;;;;;;;4940886;28;20704;-82
2023/12/29 08:06:12;;;;;;;6.40;2.77;;;;;;;;;;4945244;28;20301;-83
2023/12/29 08:08:37;;;;;;;7.97;2.43;;;;;;;;;;4926107;28;20230;-82
2023/12/29 08:11:03;;;;;;;4.00;2.00;;;;;;;;;;4959436;28;20222;-82
2023/12/29 08:13:29;;;;;;;3.57;2.00;;;;;;;;;;4934824;28;20652;-83
2023/12/29 08:15:54;;;;;;;6.57;2.47;;;;;;;;;;4939040;28;20225;-86
2023/12/29 08:18:22;;;;;;;6.03;2.30;;;;;;;;;;4916355;28;20588;-84
2023/12/29 08:20:47;;;;;;;5.97;2.30;;;;;;;;;;4955985;28;20219;-84
2023/12/29 08:23:13;;;;;;;3.77;1.93;;;;;;;;;;4968246;28;20222;-85
2023/12/29 08:25:41;;;;;;;5.93;1.87;;;;;;;;;;4920065;28;20253;-85
2023/12/29 08:28:09;;;;;;;5.53;2.00;;;;;;;;;;4917576;28;20218;-83
2023/12/29 08:30:37;;;;;;;5.10;1.87;;;;;;;;;;4928272;28;20231;-84
2023/12/29 08:33:07;;;;;;;7.77;1.77;;;;;;;;;;4946767;28;20244;-85
2023/12/29 08:35:32;;;;;;;3.00;1.90;;;;;;;;;;4927586;28;20279;-83
2023/12/29 08:38:02;;;;;;;5.10;2.30;;;;;;;;;;4927087;28;20224;-83
2023/12/29 08:40:28;;;;;;;3.50;2.27;;;;;;;;;;4934293;28;20235;-85
2023/12/29 08:42:59;;;;;;;9.03;2.63;;;;;;;;;;4963649;28;20259;-84
2023/12/29 08:45:28;;;;;;;4.67;2.30;;;;;;;;;;4965011;28;20274;-85
2023/12/29 08:47:56;;;;;;;6.10;2.67;;;;;;;;;;4948082;28;20230;-84
2023/12/29 08:50:21;;;;;;;4.30;1.77;;;;;;;;;;4938715;28;20213;-85
2023/12/29 08:52:47;;;;;;;4.53;2.07;;;;;;;;;;4933530;28;20238;-87
2023/12/29 08:55:12;;;;;;;5.30;1.90;;;;;;;;;;4945967;28;20211;-82
2023/12/29 08:57:38;;;;;;;11.10;2.33;;;;;;;;;;4952497;28;20646;-85
2023/12/29 09:00:09;;;;;;;9.90;2.60;;;;;;;;;;4960428;28;20293;-84
2023/12/29 09:02:37;;;;;;;7.97;2.50;;;;;;;;;;4948235;28;20234;-83
2023/12/29 09:05:07;;;;;;;10.60;2.90;;;;;;;;;;4949930;28;20215;-86
2023/12/29 09:07:34;;;;;;;12.80;2.40;;;;;;;;;;4930090;28;20716;-83
2023/12/29 09:10:07;;;;;;;5.00;2.63;;;;;;;;;;4928547;29;20226;-84
2023/12/29 09:12:32;;;;;;;7.63;2.30;;;;;;;;;;4949901;28;20234;-82
2023/12/29 09:15:05;;;;;;;5.30;2.23;;;;;;;;;;4966902;28;20219;-82
2023/12/29 09:17:31;;;;;;;8.57;3.13;;;;;;;;;;4924671;28;20298;-83
2023/12/29 09:19:58;;;;;;;8.40;2.20;;;;;;;;;;4960942;28;20245;-86
2023/12/29 09:22:26;;;;;;;10.90;2.77;;;;;;;;;;4920673;28;20227;-86
2023/12/29 09:24:54;;;;;;;8.77;2.70;;;;;;;;;;4953459;28;20222;-85
2023/12/29 09:27:19;;;;;;;6.53;2.17;;;;;;;;;;4954534;28;20219;-86
2023/12/29 09:29:47;;;;;;;9.73;2.47;;;;;;;;;;4962426;28;20354;-85
2023/12/29 09:32:13;;;;;;;6.57;2.30;;;;;;;;;;4963175;28;20225;-85
2023/12/29 09:34:42;;;;;;;9.13;2.83;;;;;;;;;;4952402;28;20217;-88
2023/12/29 09:37:08;;;;;;;3.33;2.00;;;;;;;;;;4925871;28;20223;-87
2023/12/29 09:39:36;;;;;;;7.20;2.30;;;;;;;;;;4959961;28;20226;-85
2023/12/29 09:42:08;;;;;;;7.27;2.33;;;;;;;;;;4959866;28;20250;-83
2023/12/29 09:44:36;;;;;;;7.73;2.43;;;;;;;;;;4945280;28;20257;-84
2023/12/29 09:47:04;;;;;;;7.30;2.80;;;;;;;;;;4951257;28;20216;-86
2023/12/29 09:49:35;;;;;;;8.43;2.50;;;;;;;;;;4933969;28;20262;-87
2023/12/29 09:52:01;;;;;;;6.27;2.40;;;;;;;;;;4922673;28;20250;-88
2023/12/29 09:54:29;;;;;;;7.13;2.50;;;;;;;;;;4923072;28;20250;-87
2023/12/29 09:56:57;;;;;;;8.33;2.13;;;;;;;;;;4964820;28;20221;-87
2023/12/29 09:59:23;;;;;;;4.73;2.00;;;;;;;;;;4920418;28;22591;-84
2023/12/29 10:01:51;;;;;;;7.63;2.07;;;;;;;;;;4956425;28;20198;-86
2023/12/29 10:04:22;;;;;;;9.70;2.37;;;;;;;;;;4947485;28;20238;-87
2023/12/29 10:06:48;;;;;;;4.03;1.73;;;;;;;;;;4932677;28;20317;-84
2023/12/29 10:09:13;;;;;;;4.40;1.40;;;;;;;;;;4933032;28;20234;-86
2023/12/29 10:11:41;;;;;;;5.50;2.00;;;;;;;;;;4925464;28;20234;-84
2023/12/29 10:14:34;;;;;;;3.77;1.70;;;;;;;;;;4963330;28;20232;-86
2023/12/29 10:17:23;;;;;;;8.73;2.20;;;;;;;;;;4947069;28;20226;-84
2023/12/29 10:20:33;;;;;;;5.47;2.03;;;;;;;;;;4942647;28;20280;-84
2023/12/29 10:23:14;;;;;;;9.00;3.03;;;;;;;;;;4926569;28;20237;-85
2023/12/29 10:25:40;;;;;;;6.93;2.20;;;;;;;;;;4957978;28;20226;-78
2023/12/29 10:28:11;;;;;;;6.87;2.33;;;;;;;;;;4933986;28;20246;-78
2023/12/29 10:30:40;;;;;;;7.37;3.00;;;;;;;;;;4943922;28;20218;-75
2023/12/29 10:33:05;;;;;;;5.30;2.90;;;;;;;;;;4957952;28;20227;-77
2023/12/29 10:35:41;;;;;;;7.10;2.60;;;;;;;;;;4944699;28;20801;-79
2023/12/29 10:38:10;;;;;;;6.80;2.40;;;;;;;;;;4955996;28;20630;-78
2023/12/29 10:40:42;;;;;;;7.13;1.93;;;;;;;;;;4957383;28;20226;-78
2023/12/29 10:43:10;;;;;;;2.87;1.17;;;;;;;;;;4958332;28;20241;-78
2023/12/29 10:45:38;;;;;;;4.83;1.37;;;;;;;;;;4942008;28;20227;-78
2023/12/29 10:48:04;;;;;;;2.33;1.20;;;;;;;;;;4938963;28;20224;-78
2023/12/29 10:50:31;;;;;;;3.67;1.20;;;;;;;;;;4921362;28;20277;-77
2023/12/29 10:53:17;;;;;;;5.97;1.53;;;;;;;;;;4955998;28;20218;-78
2023/12/29 10:55:43;;;;;;;4.73;1.90;;;;;;;;;;4953778;28;20231;-77
2023/12/29 10:58:08;;;;;;;2.67;1.53;;;;;;;;;;4955594;28;20712;-78
2023/12/29 11:00:36;;;;;;;2.67;1.60;;;;;;;;;;4928462;28;20227;-78
2023/12/29 11:03:02;;;;;;;2.40;1.40;;;;;;;;;;4930605;28;20229;-78
2023/12/29 11:05:27;;;;;;;2.47;1.20;;;;;;;;;;4961482;28;20230;-79
2023/12/29 11:07:54;;;;;;;4.20;1.63;;;;;;;;;;4930798;28;20692;-79
2023/12/29 11:10:22;;;;;;;5.13;1.60;;;;;;;;;;4927229;28;20235;-78
2023/12/29 11:12:48;;;;;;;5.17;2.00;;;;;;;;;;4959195;28;20235;-79
2023/12/29 11:15:14;;;;;;;2.93;1.73;;;;;;;;;;4926615;28;20229;-78
2023/12/29 11:17:49;;;;;;;3.77;1.60;;;;;;;;;;4930658;28;21086;-78
2023/12/29 11:20:19;;;;;;;4.67;1.63;;;;;;;;;;4929855;28;20221;-78
2023/12/29 11:22:47;;;;;;;7.33;2.00;;;;;;;;;;4930493;28;20234;-77
2023/12/29 11:25:15;;;;;;;5.20;1.80;;;;;;;;;;4925295;28;20234;-78
2023/12/29 11:27:41;;;;;;;3.67;1.57;;;;;;;;;;4954546;28;20231;-78
2023/12/29 11:30:07;;;;;;;6.03;1.60;;;;;;;;;;4923137;28;20225;-78
2023/12/29 11:32:45;;;;;;;6.47;1.60;;;;;;;;;;4929696;28;20325;-77
2023/12/29 11:35:20;;;;;;;7.23;1.93;;;;;;;;;;4942009;28;20609;-77
2023/12/29 11:37:49;;;;;;;3.17;1.40;;;;;;;;;;4915417;28;20571;-78
2023/12/29 11:40:29;;;;;;;2.63;1.20;;;;;;;;;;4962280;28;20223;-78
2023/12/29 11:42:57;;;;;;;4.40;1.73;;;;;;;;;;4944438;28;21189;-78
2023/12/29 11:45:29;;;;;;;3.53;2.00;;;;;;;;;;4939278;28;21368;-77
2023/12/29 11:48:02;;;;;;;1.93;1.07;;;;;;;;;;4943232;28;20237;-79
2023/12/29 11:50:33;;;;;;;5.87;1.50;;;;;;;;;;4945088;28;20229;-78
2023/12/29 11:52:59;;;;;;;4.87;1.33;;;;;;;;;;4939356;28;20317;-76
2023/12/29 11:55:35;;;;;;;3.70;1.50;;;;;;;;;;4941774;28;20223;-78
2023/12/29 11:58:04;;;;;;;1.90;1.00;;;;;;;;;;4928206;28;20218;-78
2023/12/29 12:00:43;;;;;;;3.70;1.07;;;;;;;;;;4946170;28;20234;-78
2023/12/29 12:03:25;;;;;;;3.07;1.10;;;;;;;;;;4945644;28;20215;-78
2023/12/29 12:05:56;;;;;;;4.30;1.00;;;;;;;;;;4931069;28;20250;-78
2023/12/29 12:08:35;;;;;;;1.27;1.00;;;;;;;;;;4957109;28;20296;-79
2023/12/29 12:11:43;;;;;;;1.43;0.80;;;;;;;;;;4927042;28;20260;-79
2023/12/29 12:14:09;;;;;;;1.67;0.93;;;;;;;;;;4956585;28;20234;-77
2023/12/29 12:16:47;;;;;;;2.27;1.33;;;;;;;;;;4960507;28;20316;-77
2023/12/29 12:19:12;;;;;;;3.63;1.37;;;;;;;;;;4962645;28;20651;-78
2023/12/29 12:21:41;;;;;;;2.97;1.50;;;;;;;;;;4934051;28;20226;-78
2023/12/29 12:24:06;;;;;;;4.50;1.00;;;;;;;;;;4955897;28;20219;-78
2023/12/29 12:26:32;;;;;;;3.63;0.90;;;;;;;;;;4940600;28;20259;-79
2023/12/29 12:28:58;;;;;;;2.10;0.90;;;;;;;;;;4959615;28;20616;-78
2023/12/29 12:31:23;;;;;;;1.63;0.87;;;;;;;;;;4961041;28;20226;-77
2023/12/29 12:33:57;;;;;;;2.03;1.10;;;;;;;;;;4979261;28;20228;-78
2023/12/29 12:36:23;;;;;;;2.73;1.60;;;;;;;;;;4948328;28;20831;-79
2023/12/29 12:39:01;;;;;;;2.67;0.97;;;;;;;;;;4969358;28;20258;-79
2023/12/29 12:41:28;;;;;;;1.63;0.93;;;;;;;;;;4953935;28;20230;-78
2023/12/29 12:44:09;;;;;;;3.13;1.10;;;;;;;;;;4937979;28;20897;-78
2023/12/29 12:46:53;;;;;;;2.20;1.00;;;;;;;;;;4962424;28;20230;-77
2023/12/29 12:49:21;;;;;;;1.17;0.70;;;;;;;;;;4959811;28;20696;-78
2023/12/29 12:51:52;;;;;;;1.37;0.87;;;;;;;;;;4954859;28;20246;-77
2023/12/29 12:54:19;;;;;;;4.13;1.33;;;;;;;;;;4962626;28;20261;-77
2023/12/29 12:56:49;;;;;;;2.33;0.90;;;;;;;;;;4946410;28;20241;-77
2023/12/29 12:59:16;;;;;;;0.57;0.53;;;;;;;;;;4944630;28;20258;-79
2023/12/29 13:01:44;;;;;;;4.33;1.57;;;;;;;;;;4934269;28;20226;-79
2023/12/29 13:04:13;;;;;;;3.63;1.37;;;;;;;;;;4945758;28;20223;-78
2023/12/29 13:06:41;;;;;;;2.00;1.37;;;;;;;;;;4932680;28;20227;-77
2023/12/29 13:09:11;;;;;;;4.37;1.40;;;;;;;;;;4956386;28;20226;-76
2023/12/29 13:11:37;;;;;;;4.03;1.47;;;;;;;;;;4959237;28;20233;-78
2023/12/29 13:14:04;;;;;;;2.97;1.17;;;;;;;;;;4960345;28;20226;-78
2023/12/29 13:16:40;;;;;;;2.73;1.10;;;;;;;;;;4916430;28;20244;-77
2023/12/29 13:19:19;;;;;;;2.37;1.20;;;;;;;;;;4953952;28;20272;-76
2023/12/29 13:22:03;;;;;;;2.87;1.43;;;;;;;;;;4915724;29;20231;-85
2023/12/29 13:24:32;;;;;;;3.00;1.13;;;;;;;;;;4919961;29;20237;-86
2023/12/29 13:27:01;;;;;;;2.17;1.20;;;;;;;;;;4948829;28;20225;-89
2023/12/29 13:29:29;;;;;;;1.80;1.13;;;;;;;;;;4915193;28;20290;-86
2023/12/29 13:31:56;;;;;;;2.83;1.37;;;;;;;;;;4924978;28;20230;-86
2023/12/29 13:34:30;;;;;;;5.80;2.50;;;;;;;;;;4943312;28;20749;-85
2023/12/29 13:37:01;;;;;;;2.47;1.20;;;;;;;;;;4929227;28;20269;-85
2023/12/29 13:39:40;;;;;;;3.53;1.30;;;;;;;;;;4927744;28;20658;-87
2023/12/29 13:42:08;;;;;;;3.27;1.27;;;;;;;;;;4953416;28;20226;-87
2023/12/29 13:44:36;;;;;;;2.90;1.20;;;;;;;;;;4935752;28;20326;-85
2023/12/29 13:47:02;;;;;;;1.13;1.03;;;;;;;;;;4929510;28;20234;-85
2023/12/29 13:49:27;;;;;;;1.50;0.83;;;;;;;;;;4932893;28;20226;-86
2023/12/29 13:51:53;;;;;;;1.10;1.00;;;;;;;;;;4941292;28;20254;-87
2023/12/29 13:54:21;;;;;;;4.70;1.30;;;;;;;;;;4943716;28;20264;-82
2023/12/29 13:56:53;;;;;;;4.83;1.57;;;;;;;;;;4936347;28;20218;-84
2023/12/29 13:59:29;;;;;;;2.10;1.90;;;;;;;;;;4957864;28;20223;-86
2023/12/29 14:02:15;;;;;;;3.10;1.90;;;;;;;;;;4931196;28;20234;-85
2023/12/29 14:04:45;;;;;;;4.33;2.77;;;;;;;;;;4944580;28;20234;-88
2023/12/29 14:07:10;;;;;;;4.73;2.70;;;;;;;;;;4969688;28;20695;-87
2023/12/29 14:09:36;;;;;;;2.93;1.57;;;;;;;;;;4913955;29;20239;-86
2023/12/29 14:12:01;;;;;;;4.03;1.67;;;;;;;;;;4938025;28;20242;-85
2023/12/29 14:14:31;;;;;;;2.50;1.83;;;;;;;;;;4935940;28;20301;-86
2023/12/29 14:16:59;;;;;;;3.27;2.30;;;;;;;;;;4949196;28;20236;-85
2023/12/29 14:19:24;;;;;;;4.70;1.80;;;;;;;;;;4938854;28;20293;-85
2023/12/29 14:21:51;;;;;;;4.33;2.70;;;;;;;;;;4925719;29;20246;-87
2023/12/29 14:24:17;;;;;;;6.87;6.17;;;;;;;;;;4953707;28;20295;-85
2023/12/29 14:26:53;;;;;;;7.10;5.37;;;;;;;;;;4954224;28;20366;-86
2023/12/29 14:29:23;;;;;;;7.07;4.87;;;;;;;;;;4932907;28;20219;-88
2023/12/29 14:31:51;;;;;;;3.73;2.50;;;;;;;;;;4925719;28;20226;-87
2023/12/29 14:34:19;;;;;;;6.93;5.10;;;;;;;;;;4957779;28;20237;-86
2023/12/29 14:36:46;;;;;;;8.40;4.80;;;;;;;;;;4926881;28;20991;-88
2023/12/29 14:39:11;;;;;;;5.30;3.70;;;;;;;;;;4970290;28;20216;-88
2023/12/29 14:41:37;;;;;;;3.83;2.60;;;;;;;;;;4963218;28;20290;-87
2023/12/29 14:44:03;;;;;;;5.77;3.80;;;;;;;;;;4937162;28;20294;-88
2023/12/29 14:46:29;;;;;;;6.87;4.00;;;;;;;;;;4938524;28;20226;-87
2023/12/29 14:49:00;;;;;;;31.63;21.07;;;;;;;;;;4946268;28;21028;-88
2023/12/29 14:51:27;;;;;;;29.40;17.70;;;;;;;;;;4931203;28;20225;-86
2023/12/29 14:53:53;;;;;;;6.47;3.80;;;;;;;;;;4936418;28;20226;-89
2023/12/29 14:56:18;;;;;;;8.17;5.77;;;;;;;;;;4911878;28;20241;-90